sensor_id;sensor_type;location;lat;lon;timestamp;P1;durP1;ratioP1;P2;durP2;ratioP2
45762;SDS011;37512;52.408;13.356;2023-04-15T00:03:30;46.72;;;25.58;;
45762;SDS011;37512;52.408;13.356;2023-04-15T00:07:32;41.67;;;24.08;;
45762;SDS011;37512;52.408;13.356;2023-04-15T00:11:33;41.22;;;23.30;;
45762;SDS011;37512;52.408;13.356;2023-04-15T00:15:35;44.65;;;24.13;;
45762;SDS011;37512;52.408;13.356;2023-04-15T00:19:37;45.67;;;24.98;;
45762;SDS011;37512;52.408;13.356;2023-04-15T00:23:39;40.70;;;22.63;;
45762;SDS011;37512;52.408;13.356;2023-04-15T00:27:41;44.55;;;24.70;;
45762;SDS011;37512;52.408;13.356;2023-04-15T00:31:42;46.78;;;24.83;;
45762;SDS011;37512;52.408;13.356;2023-04-15T00:35:44;45.20;;;24.00;;
45762;SDS011;37512;52.408;13.356;2023-04-15T00:39:48;42.75;;;25.30;;
45762;SDS011;37512;52.408;13.356;2023-04-15T00:43:50;51.17;;;26.67;;
45762;SDS011;37512;52.408;13.356;2023-04-15T00:47:52;49.83;;;27.55;;
45762;SDS011;37512;52.408;13.356;2023-04-15T00:51:54;45.30;;;22.85;;
45762;SDS011;37512;52.408;13.356;2023-04-15T00:55:55;46.83;;;26.98;;
45762;SDS011;37512;52.408;13.356;2023-04-15T00:59:57;55.30;;;27.33;;
45762;SDS011;37512;52.408;13.356;2023-04-15T01:03:59;47.47;;;26.80;;
45762;SDS011;37512;52.408;13.356;2023-04-15T01:08:01;55.38;;;29.08;;
45762;SDS011;37512;52.408;13.356;2023-04-15T01:12:03;49.28;;;27.58;;
45762;SDS011;37512;52.408;13.356;2023-04-15T01:16:05;48.97;;;26.48;;
45762;SDS011;37512;52.408;13.356;2023-04-15T01:20:07;55.40;;;28.00;;
45762;SDS011;37512;52.408;13.356;2023-04-15T01:24:12;53.72;;;29.60;;
45762;SDS011;37512;52.408;13.356;2023-04-15T01:28:18;53.85;;;27.65;;
45762;SDS011;37512;52.408;13.356;2023-04-15T01:32:20;46.75;;;26.17;;
45762;SDS011;37512;52.408;13.356;2023-04-15T01:36:21;55.30;;;29.10;;
45762;SDS011;37512;52.408;13.356;2023-04-15T01:40:23;56.90;;;28.88;;
45762;SDS011;37512;52.408;13.356;2023-04-15T01:44:25;54.53;;;28.85;;
45762;SDS011;37512;52.408;13.356;2023-04-15T01:48:26;57.58;;;28.40;;
45762;SDS011;37512;52.408;13.356;2023-04-15T01:52:28;53.92;;;29.05;;
45762;SDS011;37512;52.408;13.356;2023-04-15T01:56:29;57.80;;;28.73;;
45762;SDS011;37512;52.408;13.356;2023-04-15T02:00:31;59.13;;;29.33;;
45762;SDS011;37512;52.408;13.356;2023-04-15T02:04:32;61.10;;;30.35;;
45762;SDS011;37512;52.408;13.356;2023-04-15T02:08:34;61.67;;;29.25;;
45762;SDS011;37512;52.408;13.356;2023-04-15T02:12:35;61.22;;;30.23;;
45762;SDS011;37512;52.408;13.356;2023-04-15T02:16:37;59.15;;;32.50;;
45762;SDS011;37512;52.408;13.356;2023-04-15T02:20:38;64.50;;;30.88;;
45762;SDS011;37512;52.408;13.356;2023-04-15T02:24:40;65.30;;;30.80;;
45762;SDS011;37512;52.408;13.356;2023-04-15T02:28:42;59.25;;;29.70;;
45762;SDS011;37512;52.408;13.356;2023-04-15T02:32:43;63.35;;;31.73;;
45762;SDS011;37512;52.408;13.356;2023-04-15T02:36:45;63.72;;;30.92;;
45762;SDS011;37512;52.408;13.356;2023-04-15T02:40:48;66.07;;;28.65;;
45762;SDS011;37512;52.408;13.356;2023-04-15T02:44:51;57.78;;;28.02;;
45762;SDS011;37512;52.408;13.356;2023-04-15T02:48:52;60.50;;;29.52;;
45762;SDS011;37512;52.408;13.356;2023-04-15T02:52:53;57.92;;;28.33;;
45762;SDS011;37512;52.408;13.356;2023-04-15T02:56:55;57.00;;;29.05;;
45762;SDS011;37512;52.408;13.356;2023-04-15T03:00:57;57.67;;;27.35;;
45762;SDS011;37512;52.408;13.356;2023-04-15T03:04:58;55.95;;;29.48;;
45762;SDS011;37512;52.408;13.356;2023-04-15T03:08:59;55.33;;;30.58;;
45762;SDS011;37512;52.408;13.356;2023-04-15T03:13:02;57.10;;;28.88;;
45762;SDS011;37512;52.408;13.356;2023-04-15T03:17:04;55.13;;;28.25;;
45762;SDS011;37512;52.408;13.356;2023-04-15T03:21:05;51.88;;;28.85;;
45762;SDS011;37512;52.408;13.356;2023-04-15T03:25:07;64.25;;;28.25;;
45762;SDS011;37512;52.408;13.356;2023-04-15T03:29:09;54.85;;;27.35;;
45762;SDS011;37512;52.408;13.356;2023-04-15T03:33:10;50.08;;;25.70;;
45762;SDS011;37512;52.408;13.356;2023-04-15T03:37:12;60.97;;;30.00;;
45762;SDS011;37512;52.408;13.356;2023-04-15T03:41:13;54.45;;;26.83;;
45762;SDS011;37512;52.408;13.356;2023-04-15T03:45:15;45.47;;;24.75;;
45762;SDS011;37512;52.408;13.356;2023-04-15T03:49:16;54.78;;;29.13;;
45762;SDS011;37512;52.408;13.356;2023-04-15T03:53:19;59.13;;;30.05;;
45762;SDS011;37512;52.408;13.356;2023-04-15T03:57:21;54.33;;;27.13;;
45762;SDS011;37512;52.408;13.356;2023-04-15T04:01:22;52.65;;;25.83;;
45762;SDS011;37512;52.408;13.356;2023-04-15T04:05:24;54.78;;;26.15;;
45762;SDS011;37512;52.408;13.356;2023-04-15T04:09:25;53.67;;;28.33;;
45762;SDS011;37512;52.408;13.356;2023-04-15T04:13:27;49.38;;;24.80;;
45762;SDS011;37512;52.408;13.356;2023-04-15T04:17:29;46.65;;;25.52;;
45762;SDS011;37512;52.408;13.356;2023-04-15T04:21:30;48.10;;;27.27;;
45762;SDS011;37512;52.408;13.356;2023-04-15T04:25:34;50.15;;;25.20;;
45762;SDS011;37512;52.408;13.356;2023-04-15T04:29:35;49.83;;;26.50;;
45762;SDS011;37512;52.408;13.356;2023-04-15T04:33:37;44.08;;;25.05;;
45762;SDS011;37512;52.408;13.356;2023-04-15T04:37:38;45.25;;;24.40;;
45762;SDS011;37512;52.408;13.356;2023-04-15T04:41:40;44.72;;;24.80;;
45762;SDS011;37512;52.408;13.356;2023-04-15T04:45:41;40.33;;;22.75;;
45762;SDS011;37512;52.408;13.356;2023-04-15T04:49:43;42.58;;;23.17;;
45762;SDS011;37512;52.408;13.356;2023-04-15T04:53:44;38.00;;;22.08;;
45762;SDS011;37512;52.408;13.356;2023-04-15T04:57:46;35.65;;;21.50;;
45762;SDS011;37512;52.408;13.356;2023-04-15T05:01:47;37.72;;;21.83;;
45762;SDS011;37512;52.408;13.356;2023-04-15T05:05:49;38.85;;;21.15;;
45762;SDS011;37512;52.408;13.356;2023-04-15T05:09:50;37.70;;;21.65;;
45762;SDS011;37512;52.408;13.356;2023-04-15T05:13:52;33.53;;;20.88;;
45762;SDS011;37512;52.408;13.356;2023-04-15T05:17:53;37.05;;;19.90;;
45762;SDS011;37512;52.408;13.356;2023-04-15T05:21:55;33.72;;;19.85;;
45762;SDS011;37512;52.408;13.356;2023-04-15T05:25:56;30.60;;;19.65;;
45762;SDS011;37512;52.408;13.356;2023-04-15T05:29:58;36.35;;;19.65;;
45762;SDS011;37512;52.408;13.356;2023-04-15T05:33:59;30.02;;;18.70;;
45762;SDS011;37512;52.408;13.356;2023-04-15T05:38:01;28.63;;;18.02;;
45762;SDS011;37512;52.408;13.356;2023-04-15T05:42:03;29.02;;;16.42;;
45762;SDS011;37512;52.408;13.356;2023-04-15T05:46:06;28.85;;;16.65;;
45762;SDS011;37512;52.408;13.356;2023-04-15T05:50:08;26.20;;;16.60;;
45762;SDS011;37512;52.408;13.356;2023-04-15T05:54:10;26.73;;;16.83;;
45762;SDS011;37512;52.408;13.356;2023-04-15T05:58:12;22.70;;;15.88;;
45762;SDS011;37512;52.408;13.356;2023-04-15T06:02:13;25.02;;;15.73;;
45762;SDS011;37512;52.408;13.356;2023-04-15T06:06:15;21.77;;;15.27;;
45762;SDS011;37512;52.408;13.356;2023-04-15T06:10:17;22.33;;;15.63;;
45762;SDS011;37512;52.408;13.356;2023-04-15T06:14:18;23.67;;;14.98;;
45762;SDS011;37512;52.408;13.356;2023-04-15T06:18:20;22.48;;;15.35;;
45762;SDS011;37512;52.408;13.356;2023-04-15T06:22:22;19.80;;;13.80;;
45762;SDS011;37512;52.408;13.356;2023-04-15T06:26:23;21.63;;;14.25;;
45762;SDS011;37512;52.408;13.356;2023-04-15T06:30:25;19.77;;;13.07;;
45762;SDS011;37512;52.408;13.356;2023-04-15T06:34:26;19.23;;;13.75;;
45762;SDS011;37512;52.408;13.356;2023-04-15T06:38:28;22.85;;;14.52;;
45762;SDS011;37512;52.408;13.356;2023-04-15T06:42:29;19.40;;;13.05;;
45762;SDS011;37512;52.408;13.356;2023-04-15T06:46:31;17.52;;;12.90;;
45762;SDS011;37512;52.408;13.356;2023-04-15T06:50:32;16.55;;;11.57;;
45762;SDS011;37512;52.408;13.356;2023-04-15T06:54:35;21.13;;;12.20;;
45762;SDS011;37512;52.408;13.356;2023-04-15T06:58:37;16.15;;;11.18;;
45762;SDS011;37512;52.408;13.356;2023-04-15T07:02:39;15.23;;;11.77;;
45762;SDS011;37512;52.408;13.356;2023-04-15T07:06:40;17.70;;;11.18;;
45762;SDS011;37512;52.408;13.356;2023-04-15T07:10:42;18.02;;;11.10;;
45762;SDS011;37512;52.408;13.356;2023-04-15T07:14:44;17.35;;;9.95;;
45762;SDS011;37512;52.408;13.356;2023-04-15T07:18:46;15.15;;;10.50;;
45762;SDS011;37512;52.408;13.356;2023-04-15T07:22:47;18.52;;;10.90;;
45762;SDS011;37512;52.408;13.356;2023-04-15T07:26:48;12.98;;;9.57;;
45762;SDS011;37512;52.408;13.356;2023-04-15T07:30:50;16.73;;;9.98;;
45762;SDS011;37512;52.408;13.356;2023-04-15T07:34:51;14.50;;;10.82;;
45762;SDS011;37512;52.408;13.356;2023-04-15T07:38:53;15.35;;;10.50;;
45762;SDS011;37512;52.408;13.356;2023-04-15T07:42:55;13.00;;;10.35;;
45762;SDS011;37512;52.408;13.356;2023-04-15T07:46:58;18.98;;;12.13;;
45762;SDS011;37512;52.408;13.356;2023-04-15T07:51:00;18.40;;;11.88;;
45762;SDS011;37512;52.408;13.356;2023-04-15T07:55:02;16.48;;;11.43;;
45762;SDS011;37512;52.408;13.356;2023-04-15T07:59:04;17.35;;;11.85;;
45762;SDS011;37512;52.408;13.356;2023-04-15T08:03:06;15.65;;;11.70;;
45762;SDS011;37512;52.408;13.356;2023-04-15T08:07:08;18.40;;;12.48;;
45762;SDS011;37512;52.408;13.356;2023-04-15T08:11:09;18.67;;;12.63;;
45762;SDS011;37512;52.408;13.356;2023-04-15T08:15:11;17.65;;;13.13;;
45762;SDS011;37512;52.408;13.356;2023-04-15T08:19:13;18.80;;;13.45;;
45762;SDS011;37512;52.408;13.356;2023-04-15T08:23:14;21.58;;;13.65;;
45762;SDS011;37512;52.408;13.356;2023-04-15T08:27:16;17.73;;;13.13;;
45762;SDS011;37512;52.408;13.356;2023-04-15T08:31:18;17.30;;;12.90;;
45762;SDS011;37512;52.408;13.356;2023-04-15T08:35:20;18.42;;;12.63;;
45762;SDS011;37512;52.408;13.356;2023-04-15T08:39:22;16.67;;;13.00;;
45762;SDS011;37512;52.408;13.356;2023-04-15T08:43:26;17.67;;;12.50;;
45762;SDS011;37512;52.408;13.356;2023-04-15T08:47:30;17.20;;;12.48;;
45762;SDS011;37512;52.408;13.356;2023-04-15T08:51:32;20.23;;;13.10;;
45762;SDS011;37512;52.408;13.356;2023-04-15T08:55:34;17.52;;;12.43;;
45762;SDS011;37512;52.408;13.356;2023-04-15T08:59:36;20.15;;;12.73;;
45762;SDS011;37512;52.408;13.356;2023-04-15T09:03:39;18.45;;;12.63;;
45762;SDS011;37512;52.408;13.356;2023-04-15T09:07:41;19.90;;;12.68;;
45762;SDS011;37512;52.408;13.356;2023-04-15T09:11:42;16.80;;;12.30;;
45762;SDS011;37512;52.408;13.356;2023-04-15T09:15:43;17.83;;;12.57;;
45762;SDS011;37512;52.408;13.356;2023-04-15T09:19:45;16.65;;;13.05;;
45762;SDS011;37512;52.408;13.356;2023-04-15T09:24:00;16.80;;;13.27;;
45762;SDS011;37512;52.408;13.356;2023-04-15T09:28:02;20.10;;;12.50;;
45762;SDS011;37512;52.408;13.356;2023-04-15T09:32:11;15.10;;;12.45;;
45762;SDS011;37512;52.408;13.356;2023-04-15T09:40:37;15.80;;;12.50;;
45762;SDS011;37512;52.408;13.356;2023-04-15T09:44:37;16.38;;;12.43;;
45762;SDS011;37512;52.408;13.356;2023-04-15T09:48:38;14.27;;;11.77;;
45762;SDS011;37512;52.408;13.356;2023-04-15T09:52:40;18.60;;;13.40;;
45762;SDS011;37512;52.408;13.356;2023-04-15T09:56:43;16.83;;;13.10;;
45762;SDS011;37512;52.408;13.356;2023-04-15T10:00:49;20.52;;;14.70;;
45762;SDS011;37512;52.408;13.356;2023-04-15T10:04:52;16.35;;;13.30;;
45762;SDS011;37512;52.408;13.356;2023-04-15T10:08:55;17.35;;;13.27;;
45762;SDS011;37512;52.408;13.356;2023-04-15T10:12:58;18.80;;;14.15;;
45762;SDS011;37512;52.408;13.356;2023-04-15T10:17:02;17.38;;;12.93;;
45762;SDS011;37512;52.408;13.356;2023-04-15T10:21:05;19.60;;;14.20;;
45762;SDS011;37512;52.408;13.356;2023-04-15T10:25:08;16.63;;;13.48;;
45762;SDS011;37512;52.408;13.356;2023-04-15T10:29:11;21.48;;;14.35;;
45762;SDS011;37512;52.408;13.356;2023-04-15T10:33:14;19.88;;;15.10;;
45762;SDS011;37512;52.408;13.356;2023-04-15T10:37:21;16.73;;;13.43;;
45762;SDS011;37512;52.408;13.356;2023-04-15T10:41:24;15.30;;;12.70;;
45762;SDS011;37512;52.408;13.356;2023-04-15T10:45:31;17.75;;;12.90;;
45762;SDS011;37512;52.408;13.356;2023-04-15T10:49:34;20.42;;;13.40;;
45762;SDS011;37512;52.408;13.356;2023-04-15T10:53:45;19.15;;;14.20;;
45762;SDS011;37512;52.408;13.356;2023-04-15T10:57:50;18.20;;;14.90;;
45762;SDS011;37512;52.408;13.356;2023-04-15T11:06:03;19.17;;;13.02;;
45762;SDS011;37512;52.408;13.356;2023-04-15T11:14:14;18.35;;;14.27;;
45762;SDS011;37512;52.408;13.356;2023-04-15T11:18:19;15.45;;;13.05;;
45762;SDS011;37512;52.408;13.356;2023-04-15T11:22:33;19.35;;;13.40;;
45762;SDS011;37512;52.408;13.356;2023-04-15T11:26:34;15.65;;;12.88;;
45762;SDS011;37512;52.408;13.356;2023-04-15T11:30:36;19.30;;;14.10;;
45762;SDS011;37512;52.408;13.356;2023-04-15T11:34:38;17.30;;;13.68;;
45762;SDS011;37512;52.408;13.356;2023-04-15T11:38:42;16.40;;;12.63;;
45762;SDS011;37512;52.408;13.356;2023-04-15T11:42:45;18.05;;;13.82;;
45762;SDS011;37512;52.408;13.356;2023-04-15T11:46:50;19.08;;;12.48;;
45762;SDS011;37512;52.408;13.356;2023-04-15T11:50:55;16.42;;;13.15;;
45762;SDS011;37512;52.408;13.356;2023-04-15T11:55:03;16.85;;;12.98;;
45762;SDS011;37512;52.408;13.356;2023-04-15T11:59:08;17.38;;;12.80;;
45762;SDS011;37512;52.408;13.356;2023-04-15T12:03:10;31.23;;;21.27;;
45762;SDS011;37512;52.408;13.356;2023-04-15T12:07:13;30.02;;;19.40;;
45762;SDS011;37512;52.408;13.356;2023-04-15T12:11:18;17.80;;;13.20;;
45762;SDS011;37512;52.408;13.356;2023-04-15T12:15:27;16.00;;;12.13;;
45762;SDS011;37512;52.408;13.356;2023-04-15T12:19:30;16.10;;;12.95;;
45762;SDS011;37512;52.408;13.356;2023-04-15T12:23:39;14.68;;;12.15;;
45762;SDS011;37512;52.408;13.356;2023-04-15T12:27:51;16.52;;;12.05;;
45762;SDS011;37512;52.408;13.356;2023-04-15T12:32:10;14.13;;;11.75;;
45762;SDS011;37512;52.408;13.356;2023-04-15T12:36:13;15.15;;;11.82;;
45762;SDS011;37512;52.408;13.356;2023-04-15T12:40:18;14.48;;;11.95;;
45762;SDS011;37512;52.408;13.356;2023-04-15T12:44:23;13.57;;;11.68;;
45762;SDS011;37512;52.408;13.356;2023-04-15T12:48:24;13.57;;;11.00;;
45762;SDS011;37512;52.408;13.356;2023-04-15T12:52:31;15.43;;;10.65;;
45762;SDS011;37512;52.408;13.356;2023-04-15T12:56:33;11.00;;;9.13;;
45762;SDS011;37512;52.408;13.356;2023-04-15T13:00:59;13.02;;;9.57;;
45762;SDS011;37512;52.408;13.356;2023-04-15T13:05:00;11.93;;;9.35;;
45762;SDS011;37512;52.408;13.356;2023-04-15T13:09:02;14.57;;;10.70;;
45762;SDS011;37512;52.408;13.356;2023-04-15T13:13:06;12.40;;;10.52;;
45762;SDS011;37512;52.408;13.356;2023-04-15T13:17:14;15.30;;;11.48;;
45762;SDS011;37512;52.408;13.356;2023-04-15T13:21:18;16.17;;;10.50;;
45762;SDS011;37512;52.408;13.356;2023-04-15T13:25:29;11.40;;;9.77;;
45762;SDS011;37512;52.408;13.356;2023-04-15T13:29:47;15.48;;;10.68;;
45762;SDS011;37512;52.408;13.356;2023-04-15T13:33:49;11.55;;;9.30;;
45762;SDS011;37512;52.408;13.356;2023-04-15T13:37:52;13.63;;;9.32;;
45762;SDS011;37512;52.408;13.356;2023-04-15T13:41:54;13.38;;;11.23;;
45762;SDS011;37512;52.408;13.356;2023-04-15T13:45:56;10.73;;;9.32;;
45762;SDS011;37512;52.408;13.356;2023-04-15T13:49:57;11.15;;;9.38;;
45762;SDS011;37512;52.408;13.356;2023-04-15T13:53:59;12.85;;;9.20;;
45762;SDS011;37512;52.408;13.356;2023-04-15T13:58:00;11.93;;;9.02;;
45762;SDS011;37512;52.408;13.356;2023-04-15T14:02:02;12.15;;;9.48;;
45762;SDS011;37512;52.408;13.356;2023-04-15T14:06:04;9.70;;;7.43;;
45762;SDS011;37512;52.408;13.356;2023-04-15T14:10:06;11.15;;;8.48;;
45762;SDS011;37512;52.408;13.356;2023-04-15T14:14:08;10.73;;;7.78;;
45762;SDS011;37512;52.408;13.356;2023-04-15T14:18:09;13.35;;;8.13;;
45762;SDS011;37512;52.408;13.356;2023-04-15T14:22:11;14.52;;;9.38;;
45762;SDS011;37512;52.408;13.356;2023-04-15T14:26:12;10.00;;;8.00;;
45762;SDS011;37512;52.408;13.356;2023-04-15T14:30:14;8.73;;;7.82;;
45762;SDS011;37512;52.408;13.356;2023-04-15T14:34:16;10.23;;;7.47;;
45762;SDS011;37512;52.408;13.356;2023-04-15T14:38:17;11.98;;;8.13;;
45762;SDS011;37512;52.408;13.356;2023-04-15T14:42:19;10.35;;;8.35;;
45762;SDS011;37512;52.408;13.356;2023-04-15T14:46:21;10.40;;;8.00;;
45762;SDS011;37512;52.408;13.356;2023-04-15T14:50:23;9.50;;;7.63;;
45762;SDS011;37512;52.408;13.356;2023-04-15T14:54:24;10.85;;;8.40;;
45762;SDS011;37512;52.408;13.356;2023-04-15T14:58:26;10.57;;;8.85;;
45762;SDS011;37512;52.408;13.356;2023-04-15T15:02:27;10.10;;;7.78;;
45762;SDS011;37512;52.408;13.356;2023-04-15T15:06:40;12.05;;;8.30;;
45762;SDS011;37512;52.408;13.356;2023-04-15T15:10:42;10.63;;;7.90;;
45762;SDS011;37512;52.408;13.356;2023-04-15T15:14:49;13.52;;;9.27;;
45762;SDS011;37512;52.408;13.356;2023-04-15T15:18:51;12.82;;;8.48;;
45762;SDS011;37512;52.408;13.356;2023-04-15T15:22:52;13.00;;;9.80;;
45762;SDS011;37512;52.408;13.356;2023-04-15T15:26:54;10.32;;;8.57;;
45762;SDS011;37512;52.408;13.356;2023-04-15T15:31:00;12.73;;;9.68;;
45762;SDS011;37512;52.408;13.356;2023-04-15T15:35:01;12.90;;;10.23;;
45762;SDS011;37512;52.408;13.356;2023-04-15T15:39:03;12.23;;;9.38;;
45762;SDS011;37512;52.408;13.356;2023-04-15T15:43:05;11.15;;;9.23;;
45762;SDS011;37512;52.408;13.356;2023-04-15T15:47:07;12.20;;;9.05;;
45762;SDS011;37512;52.408;13.356;2023-04-15T15:51:08;11.63;;;9.40;;
45762;SDS011;37512;52.408;13.356;2023-04-15T15:55:10;14.07;;;10.82;;
45762;SDS011;37512;52.408;13.356;2023-04-15T15:59:11;10.57;;;8.95;;
45762;SDS011;37512;52.408;13.356;2023-04-15T16:03:13;11.73;;;8.75;;
45762;SDS011;37512;52.408;13.356;2023-04-15T16:07:15;11.45;;;8.88;;
45762;SDS011;37512;52.408;13.356;2023-04-15T16:11:17;9.90;;;8.43;;
45762;SDS011;37512;52.408;13.356;2023-04-15T16:15:18;13.30;;;8.38;;
45762;SDS011;37512;52.408;13.356;2023-04-15T16:19:20;11.50;;;8.38;;
45762;SDS011;37512;52.408;13.356;2023-04-15T16:23:21;9.23;;;7.68;;
45762;SDS011;37512;52.408;13.356;2023-04-15T16:27:24;11.15;;;8.13;;
45762;SDS011;37512;52.408;13.356;2023-04-15T16:31:25;13.43;;;10.23;;
45762;SDS011;37512;52.408;13.356;2023-04-15T16:35:26;11.07;;;8.38;;
45762;SDS011;37512;52.408;13.356;2023-04-15T16:39:28;9.85;;;8.02;;
45762;SDS011;37512;52.408;13.356;2023-04-15T16:43:30;11.43;;;8.00;;
45762;SDS011;37512;52.408;13.356;2023-04-15T16:47:31;11.23;;;6.97;;
45762;SDS011;37512;52.408;13.356;2023-04-15T16:51:33;9.45;;;6.93;;
45762;SDS011;37512;52.408;13.356;2023-04-15T16:55:34;10.55;;;8.23;;
45762;SDS011;37512;52.408;13.356;2023-04-15T16:59:36;9.13;;;7.00;;
45762;SDS011;37512;52.408;13.356;2023-04-15T17:03:38;9.60;;;7.30;;
45762;SDS011;37512;52.408;13.356;2023-04-15T17:07:40;13.32;;;8.98;;
45762;SDS011;37512;52.408;13.356;2023-04-15T17:11:41;9.38;;;7.85;;
45762;SDS011;37512;52.408;13.356;2023-04-15T17:15:44;10.60;;;6.97;;
45762;SDS011;37512;52.408;13.356;2023-04-15T17:19:46;9.20;;;7.10;;
45762;SDS011;37512;52.408;13.356;2023-04-15T17:23:47;8.93;;;7.43;;
45762;SDS011;37512;52.408;13.356;2023-04-15T17:27:50;9.80;;;7.40;;
45762;SDS011;37512;52.408;13.356;2023-04-15T17:31:52;10.85;;;7.78;;
45762;SDS011;37512;52.408;13.356;2023-04-15T17:35:56;10.60;;;7.85;;
45762;SDS011;37512;52.408;13.356;2023-04-15T17:39:57;9.98;;;7.75;;
45762;SDS011;37512;52.408;13.356;2023-04-15T17:43:59;10.88;;;7.65;;
45762;SDS011;37512;52.408;13.356;2023-04-15T17:48:01;11.60;;;8.65;;
45762;SDS011;37512;52.408;13.356;2023-04-15T17:52:03;9.80;;;7.82;;
45762;SDS011;37512;52.408;13.356;2023-04-15T17:56:05;11.82;;;9.13;;
45762;SDS011;37512;52.408;13.356;2023-04-15T18:00:07;11.50;;;8.75;;
45762;SDS011;37512;52.408;13.356;2023-04-15T18:04:10;13.20;;;9.65;;
45762;SDS011;37512;52.408;13.356;2023-04-15T18:08:12;11.45;;;8.82;;
45762;SDS011;37512;52.408;13.356;2023-04-15T18:12:14;12.32;;;8.68;;
45762;SDS011;37512;52.408;13.356;2023-04-15T18:16:16;11.23;;;8.88;;
45762;SDS011;37512;52.408;13.356;2023-04-15T18:20:17;14.60;;;9.48;;
45762;SDS011;37512;52.408;13.356;2023-04-15T18:24:19;12.18;;;9.20;;
45762;SDS011;37512;52.408;13.356;2023-04-15T18:28:20;14.50;;;9.48;;
45762;SDS011;37512;52.408;13.356;2023-04-15T18:32:23;19.77;;;10.90;;
45762;SDS011;37512;52.408;13.356;2023-04-15T18:36:25;13.65;;;8.82;;
45762;SDS011;37512;52.408;13.356;2023-04-15T18:40:26;12.50;;;9.45;;
45762;SDS011;37512;52.408;13.356;2023-04-15T18:44:28;13.50;;;9.43;;
45762;SDS011;37512;52.408;13.356;2023-04-15T18:48:29;12.95;;;9.60;;
45762;SDS011;37512;52.408;13.356;2023-04-15T18:52:31;14.60;;;10.07;;
45762;SDS011;37512;52.408;13.356;2023-04-15T18:56:33;14.98;;;10.30;;
45762;SDS011;37512;52.408;13.356;2023-04-15T19:00:35;13.38;;;10.20;;
45762;SDS011;37512;52.408;13.356;2023-04-15T19:04:41;14.88;;;10.07;;
45762;SDS011;37512;52.408;13.356;2023-04-15T19:08:43;15.65;;;9.82;;
45762;SDS011;37512;52.408;13.356;2023-04-15T19:12:44;16.42;;;10.82;;
45762;SDS011;37512;52.408;13.356;2023-04-15T19:16:46;18.73;;;12.60;;
45762;SDS011;37512;52.408;13.356;2023-04-15T19:20:48;14.95;;;10.57;;
45762;SDS011;37512;52.408;13.356;2023-04-15T19:29:11;15.55;;;11.50;;
45762;SDS011;37512;52.408;13.356;2023-04-15T19:33:13;14.70;;;10.55;;
45762;SDS011;37512;52.408;13.356;2023-04-15T19:37:17;16.17;;;11.40;;
45762;SDS011;37512;52.408;13.356;2023-04-15T19:41:19;13.73;;;9.88;;
45762;SDS011;37512;52.408;13.356;2023-04-15T19:45:21;13.13;;;9.80;;
45762;SDS011;37512;52.408;13.356;2023-04-15T19:49:23;12.57;;;9.27;;
45762;SDS011;37512;52.408;13.356;2023-04-15T19:53:26;12.77;;;9.20;;
45762;SDS011;37512;52.408;13.356;2023-04-15T19:57:27;12.60;;;9.13;;
45762;SDS011;37512;52.408;13.356;2023-04-15T20:01:29;14.10;;;9.75;;
45762;SDS011;37512;52.408;13.356;2023-04-15T20:05:30;13.48;;;9.50;;
45762;SDS011;37512;52.408;13.356;2023-04-15T20:09:32;13.75;;;10.32;;
45762;SDS011;37512;52.408;13.356;2023-04-15T20:13:33;13.38;;;9.52;;
45762;SDS011;37512;52.408;13.356;2023-04-15T20:17:35;15.50;;;10.13;;
45762;SDS011;37512;52.408;13.356;2023-04-15T20:21:37;13.57;;;11.13;;
45762;SDS011;37512;52.408;13.356;2023-04-15T20:25:40;15.18;;;11.57;;
45762;SDS011;37512;52.408;13.356;2023-04-15T20:29:42;18.13;;;12.82;;
45762;SDS011;37512;52.408;13.356;2023-04-15T20:33:43;18.20;;;13.30;;
45762;SDS011;37512;52.408;13.356;2023-04-15T20:37:45;25.50;;;13.48;;
45762;SDS011;37512;52.408;13.356;2023-04-15T20:41:46;19.00;;;14.50;;
45762;SDS011;37512;52.408;13.356;2023-04-15T20:45:49;19.85;;;14.32;;
45762;SDS011;37512;52.408;13.356;2023-04-15T20:49:52;23.42;;;15.73;;
45762;SDS011;37512;52.408;13.356;2023-04-15T20:53:54;23.63;;;15.27;;
45762;SDS011;37512;52.408;13.356;2023-04-15T20:57:55;25.58;;;18.48;;
45762;SDS011;37512;52.408;13.356;2023-04-15T21:01:58;24.55;;;15.85;;
45762;SDS011;37512;52.408;13.356;2023-04-15T21:05:59;23.20;;;16.05;;
45762;SDS011;37512;52.408;13.356;2023-04-15T21:10:01;18.63;;;14.13;;
45762;SDS011;37512;52.408;13.356;2023-04-15T21:14:04;22.88;;;14.77;;
45762;SDS011;37512;52.408;13.356;2023-04-15T21:18:07;23.77;;;15.48;;
45762;SDS011;37512;52.408;13.356;2023-04-15T21:22:09;23.85;;;15.00;;
45762;SDS011;37512;52.408;13.356;2023-04-15T21:26:10;21.33;;;15.88;;
45762;SDS011;37512;52.408;13.356;2023-04-15T21:30:12;29.35;;;16.58;;
45762;SDS011;37512;52.408;13.356;2023-04-15T21:34:13;25.02;;;17.45;;
45762;SDS011;37512;52.408;13.356;2023-04-15T21:38:15;28.65;;;17.98;;
45762;SDS011;37512;52.408;13.356;2023-04-15T21:42:16;25.48;;;17.83;;
45762;SDS011;37512;52.408;13.356;2023-04-15T21:46:18;26.90;;;17.23;;
45762;SDS011;37512;52.408;13.356;2023-04-15T21:50:24;23.73;;;16.50;;
45762;SDS011;37512;52.408;13.356;2023-04-15T21:54:26;24.80;;;16.55;;
45762;SDS011;37512;52.408;13.356;2023-04-15T21:58:28;23.55;;;16.63;;
45762;SDS011;37512;52.408;13.356;2023-04-15T22:02:29;27.83;;;17.17;;
45762;SDS011;37512;52.408;13.356;2023-04-15T22:06:31;26.98;;;17.83;;
45762;SDS011;37512;52.408;13.356;2023-04-15T22:10:35;27.08;;;18.45;;
45762;SDS011;37512;52.408;13.356;2023-04-15T22:14:38;28.60;;;17.80;;
45762;SDS011;37512;52.408;13.356;2023-04-15T22:18:39;31.10;;;18.98;;
45762;SDS011;37512;52.408;13.356;2023-04-15T22:22:41;28.25;;;18.67;;
45762;SDS011;37512;52.408;13.356;2023-04-15T22:26:44;28.83;;;18.63;;
45762;SDS011;37512;52.408;13.356;2023-04-15T22:30:46;23.98;;;16.27;;
45762;SDS011;37512;52.408;13.356;2023-04-15T22:34:47;25.15;;;17.38;;
45762;SDS011;37512;52.408;13.356;2023-04-15T22:38:49;27.50;;;18.55;;
45762;SDS011;37512;52.408;13.356;2023-04-15T22:42:50;29.15;;;19.98;;
45762;SDS011;37512;52.408;13.356;2023-04-15T22:46:52;28.50;;;19.40;;
45762;SDS011;37512;52.408;13.356;2023-04-15T22:50:53;25.38;;;17.45;;
45762;SDS011;37512;52.408;13.356;2023-04-15T22:54:55;25.92;;;17.05;;
45762;SDS011;37512;52.408;13.356;2023-04-15T22:58:56;24.20;;;17.33;;
45762;SDS011;37512;52.408;13.356;2023-04-15T23:02:58;26.52;;;17.42;;
45762;SDS011;37512;52.408;13.356;2023-04-15T23:06:59;27.17;;;17.13;;
45762;SDS011;37512;52.408;13.356;2023-04-15T23:11:01;25.20;;;16.70;;
45762;SDS011;37512;52.408;13.356;2023-04-15T23:15:03;21.58;;;15.07;;
45762;SDS011;37512;52.408;13.356;2023-04-15T23:19:04;24.83;;;17.45;;
45762;SDS011;37512;52.408;13.356;2023-04-15T23:23:06;23.77;;;17.40;;
45762;SDS011;37512;52.408;13.356;2023-04-15T23:27:07;24.55;;;16.63;;
45762;SDS011;37512;52.408;13.356;2023-04-15T23:31:09;27.02;;;16.30;;
45762;SDS011;37512;52.408;13.356;2023-04-15T23:35:12;26.08;;;17.73;;
45762;SDS011;37512;52.408;13.356;2023-04-15T23:39:14;26.35;;;17.50;;
45762;SDS011;37512;52.408;13.356;2023-04-15T23:43:15;26.85;;;17.30;;